createdAt,value
2019-04-03T00:02:18.882Z,100144.69
2019-04-03T00:04:48.666Z,100144.67
2019-04-03T00:07:18.418Z,100140.59
2019-04-03T00:09:48.244Z,100138.73
2019-04-03T00:12:18.171Z,100137.64
2019-04-03T00:14:48.100Z,100153.28
2019-04-03T00:17:17.927Z,100151.22
2019-04-03T00:19:48.257Z,100136.73
2019-04-03T00:22:18.139Z,100133.50
2019-04-03T00:24:47.983Z,100137.72
2019-04-03T00:27:17.781Z,100142.56
2019-04-03T00:29:47.634Z,100136.98
2019-04-03T00:32:17.492Z,100135.12
2019-04-03T00:34:47.379Z,100138.45
2019-04-03T00:37:18.836Z,100132.80
2019-04-03T00:39:48.733Z,100139.30
2019-04-03T00:42:18.571Z,100140.80
2019-04-03T00:44:48.557Z,100141.54
2019-04-03T00:47:18.382Z,100139.47
2019-04-03T00:49:48.151Z,100138.12
2019-04-03T00:52:17.955Z,100139.25
2019-04-03T00:54:47.993Z,100139.36
2019-04-03T00:57:17.966Z,100137.16
2019-04-03T00:59:47.864Z,100138.87
2019-04-03T01:02:17.690Z,100140.00
2019-04-03T01:04:47.567Z,100140.04
2019-04-03T01:07:17.321Z,100129.55
2019-04-03T01:09:47.152Z,100122.88
2019-04-03T01:12:17.361Z,100129.42
2019-04-03T01:14:47.146Z,100133.63
2019-04-03T01:17:16.907Z,100137.55
2019-04-03T01:19:46.639Z,100138.18
2019-04-03T01:22:16.393Z,100142.25
2019-04-03T01:24:46.302Z,100137.07
2019-04-03T01:27:16.090Z,100135.33
2019-04-03T01:29:45.867Z,100140.65
2019-04-03T01:32:16.207Z,100141.23
2019-04-03T01:34:47.650Z,100136.82
2019-04-03T01:37:18.928Z,100138.78
2019-04-03T01:39:50.754Z,100139.52
2019-04-03T01:42:22.297Z,100140.03
2019-04-03T01:44:52.190Z,100138.78
2019-04-03T01:47:22.090Z,100140.16
2019-04-03T01:49:51.846Z,100138.78
2019-04-03T01:52:21.622Z,100139.03
2019-04-03T01:54:51.369Z,100138.05
2019-04-03T01:57:21.126Z,100129.80
2019-04-03T01:59:50.935Z,100137.39
2019-04-03T02:02:20.712Z,100137.64
2019-04-03T02:04:50.447Z,100140.45
2019-04-03T02:07:20.181Z,100146.98
2019-04-03T02:09:49.938Z,100136.91
2019-04-03T02:12:20.484Z,100139.98
2019-04-03T02:14:51.712Z,100144.77
2019-04-03T02:17:23.497Z,100144.18
2019-04-03T02:19:55.997Z,100153.27
2019-04-03T02:22:24.981Z,100154.87
2019-04-03T02:24:54.794Z,100150.06
2019-04-03T02:27:24.652Z,100151.91
2019-04-03T02:29:54.497Z,100150.41
2019-04-03T02:32:24.923Z,100154.38
2019-04-03T02:34:54.779Z,100149.09
2019-04-03T02:37:24.598Z,100156.33
2019-04-03T02:39:59.050Z,100152.55
2019-04-03T02:42:26.111Z,100154.87
2019-04-03T02:44:55.850Z,100153.87
2019-04-03T02:47:25.576Z,100152.75
2019-04-03T02:49:55.787Z,100158.06
2019-04-03T02:52:26.485Z,100156.94
2019-04-03T02:54:56.411Z,100146.06
2019-04-03T02:57:26.158Z,100160.83
2019-04-03T02:59:58.664Z,100155.17
2019-04-03T03:02:27.664Z,100157.73
2019-04-03T03:04:57.522Z,100152.94
2019-04-03T03:07:28.007Z,100158.35
2019-04-03T03:09:58.182Z,100157.00
2019-04-03T03:12:28.762Z,100161.30
2019-04-03T03:14:59.415Z,100154.92
2019-04-03T03:17:30.591Z,100164.38
2019-04-03T03:20:06.556Z,100169.06
2019-04-03T03:22:36.186Z,100171.36
2019-04-03T03:25:08.050Z,100168.92
2019-04-03T03:27:41.196Z,100156.83
2019-04-03T03:30:30.507Z,100166.88
2019-04-03T03:32:42.519Z,100165.62
2019-04-03T03:35:16.793Z,100167.39
2019-04-03T03:37:46.136Z,100165.05
2019-04-03T03:40:17.191Z,100165.19
2019-04-03T03:42:47.616Z,100172.20
2019-04-03T03:45:21.607Z,100170.64
2019-04-03T03:47:53.322Z,100170.95
2019-04-03T03:50:25.766Z,100174.36
2019-04-03T03:52:57.284Z,100171.36
2019-04-03T03:55:27.501Z,100163.98
2019-04-03T03:57:59.635Z,100166.16
2019-04-03T04:00:30.063Z,100169.92
2019-04-03T04:02:59.950Z,100174.72
2019-04-03T04:05:30.038Z,100183.83
2019-04-03T04:07:59.887Z,100184.06
2019-04-03T04:10:34.846Z,100177.72
2019-04-03T04:13:02.407Z,100178.42
2019-04-03T04:15:32.833Z,100183.61
2019-04-03T04:18:03.932Z,100187.64
2019-04-03T04:20:36.690Z,100184.64
2019-04-03T04:23:05.639Z,100179.45
2019-04-03T04:25:36.012Z,100187.94
2019-04-03T04:28:08.708Z,100180.45
2019-04-03T04:30:37.620Z,100192.38
2019-04-03T04:33:07.522Z,100184.97
2019-04-03T04:35:37.544Z,100188.50
2019-04-03T04:38:07.476Z,100186.30
2019-04-03T04:40:37.315Z,100178.82
2019-04-03T04:43:08.227Z,100183.48
2019-04-03T04:45:38.340Z,100188.56
2019-04-03T04:48:08.169Z,100190.97
2019-04-03T04:50:37.984Z,100193.55
2019-04-03T04:53:08.865Z,100196.59
2019-04-03T04:55:38.804Z,100195.50
2019-04-03T04:58:09.902Z,100194.94
2019-04-03T05:00:40.160Z,100200.88
2019-04-03T05:03:09.990Z,100209.97
2019-04-03T05:05:39.719Z,100207.35
2019-04-03T05:08:09.474Z,100203.58
2019-04-03T05:10:39.233Z,100204.14
2019-04-03T05:13:09.053Z,100206.09
2019-04-03T05:15:38.836Z,100214.55
2019-04-03T05:18:08.832Z,100212.01
2019-04-03T05:20:38.669Z,100210.75
2019-04-03T05:23:08.461Z,100210.42
2019-04-03T05:25:38.297Z,100216.81
2019-04-03T05:28:08.266Z,100215.27
2019-04-03T05:30:38.693Z,100212.90
2019-04-03T05:33:10.611Z,100216.23
2019-04-03T05:35:40.035Z,100208.31
2019-04-03T05:38:09.947Z,100206.73
2019-04-03T05:40:40.115Z,100201.41
2019-04-03T05:43:09.933Z,100214.17
2019-04-03T05:45:41.772Z,100215.47
2019-04-03T05:48:13.357Z,100216.81
2019-04-03T05:50:42.556Z,100224.27
2019-04-03T05:53:17.890Z,100227.13
2019-04-03T05:55:47.841Z,100227.93
2019-04-03T05:58:17.613Z,100222.36
2019-04-03T06:00:47.295Z,100234.61
2019-04-03T06:03:16.986Z,100236.01
2019-04-03T06:05:46.679Z,100239.80
2019-04-03T06:08:17.903Z,100239.42
2019-04-03T06:10:47.758Z,100247.23
2019-04-03T06:13:17.627Z,100244.66
2019-04-03T06:15:47.420Z,100251.20
2019-04-03T06:18:17.757Z,100251.95
2019-04-03T06:20:48.355Z,100252.41
2019-04-03T06:23:21.013Z,100254.34
2019-04-03T06:25:49.754Z,100257.66
2019-04-03T06:28:19.474Z,100262.09
2019-04-03T06:30:49.400Z,100255.36
2019-04-03T06:33:19.509Z,100253.87
2019-04-03T06:35:49.191Z,100255.08
2019-04-03T06:38:19.143Z,100253.63
2019-04-03T06:40:49.034Z,100262.95
2019-04-03T06:43:18.853Z,100265.42
2019-04-03T06:45:48.672Z,100255.52
2019-04-03T06:48:18.501Z,100264.70
2019-04-03T06:50:48.246Z,100273.06
2019-04-03T06:53:17.937Z,100275.05
2019-04-03T06:55:47.868Z,100273.06
2019-04-03T06:58:17.681Z,100271.48
2019-04-03T07:00:47.688Z,100274.31
2019-04-03T07:03:17.538Z,100280.87
2019-04-03T07:05:47.383Z,100277.17
2019-04-03T07:08:28.983Z,100289.38
2019-04-03T07:10:55.175Z,100284.56
2019-04-03T07:13:20.946Z,100280.99
2019-04-03T07:15:50.787Z,100285.58
2019-04-03T07:18:20.669Z,100281.88
2019-04-03T07:20:51.857Z,100283.97
2019-04-03T07:23:21.857Z,100281.75
2019-04-03T07:25:51.671Z,100286.55
2019-04-03T07:28:21.418Z,100287.92
2019-04-03T07:30:53.552Z,100288.53
2019-04-03T07:33:22.977Z,100296.31
2019-04-03T07:35:52.902Z,100295.94
2019-04-03T07:38:22.808Z,100296.08
2019-04-03T07:40:52.874Z,100294.44
2019-04-03T07:43:22.638Z,100296.30
2019-04-03T07:45:52.430Z,100301.11
2019-04-03T07:48:22.185Z,100298.63
2019-04-03T07:50:51.930Z,100299.27
2019-04-03T07:53:21.883Z,100297.61
2019-04-03T07:55:51.954Z,100302.93
2019-04-03T07:58:25.036Z,100305.98
2019-04-03T08:00:53.289Z,100306.09
2019-04-03T08:03:23.215Z,100315.58
2019-04-03T08:05:55.879Z,100313.95
2019-04-03T08:08:24.541Z,100319.87
2019-04-03T08:10:54.256Z,100321.23
2019-04-03T08:13:24.066Z,100317.14
2019-04-03T08:15:53.773Z,100325.51
2019-04-03T08:18:23.606Z,100326.50
2019-04-03T08:20:53.420Z,100332.58
2019-04-03T08:23:23.151Z,100329.84
2019-04-03T08:25:54.292Z,100332.09
2019-04-03T08:28:28.076Z,100343.66
2019-04-03T08:30:55.919Z,100343.45
2019-04-03T08:33:27.456Z,100350.57
2019-04-03T08:35:57.096Z,100354.33
2019-04-03T08:38:26.958Z,100356.74
2019-04-03T08:40:57.123Z,100354.07
2019-04-03T08:43:27.040Z,100353.34
2019-04-03T08:45:56.780Z,100358.63
2019-04-03T08:48:26.499Z,100356.98
2019-04-03T08:50:58.164Z,100354.91
2019-04-03T08:53:34.783Z,100357.40
2019-04-03T08:56:04.678Z,100351.39
2019-04-03T08:58:34.710Z,100354.03
2019-04-03T09:01:05.367Z,100347.80
2019-04-03T09:03:35.305Z,100346.97
2019-04-03T09:06:05.423Z,100351.69
2019-04-03T09:08:35.351Z,100349.44
2019-04-03T09:11:05.550Z,100339.56
2019-04-03T09:13:35.700Z,100344.47
2019-04-03T09:16:06.052Z,100346.48
2019-04-03T09:18:38.199Z,100351.91
2019-04-03T09:21:07.383Z,100349.36
2019-04-03T09:23:37.151Z,100341.61
2019-04-03T09:26:06.927Z,100347.50
2019-04-03T09:28:37.105Z,100345.84
2019-04-03T09:31:07.190Z,100342.13
2019-04-03T09:33:37.040Z,100341.77
2019-04-03T09:36:06.747Z,100347.13
2019-04-03T09:38:36.604Z,100334.47
2019-04-03T09:41:06.434Z,100335.73
2019-04-03T09:43:39.054Z,100336.53
2019-04-03T09:46:07.929Z,100329.35
2019-04-03T09:48:38.029Z,100326.66
2019-04-03T09:51:09.637Z,100328.66
2019-04-03T09:53:39.398Z,100329.17
2019-04-03T09:56:09.319Z,100323.90
2019-04-03T09:58:39.161Z,100328.80
2019-04-03T10:01:08.981Z,100328.90
2019-04-03T10:03:38.767Z,100322.81
2019-04-03T10:06:08.616Z,100326.27
2019-04-03T10:08:40.338Z,100331.00
2019-04-03T10:11:10.926Z,100331.14
2019-04-03T10:13:40.699Z,100329.90
2019-04-03T10:16:10.593Z,100328.55
2019-04-03T10:18:41.784Z,100332.16
2019-04-03T10:21:12.473Z,100335.81
2019-04-03T10:23:42.298Z,100329.78
2019-04-03T10:26:12.231Z,100336.61
2019-04-03T10:28:43.019Z,100336.98
2019-04-03T10:31:12.999Z,100338.20
2019-04-03T10:33:43.027Z,100336.91
2019-04-03T10:36:13.183Z,100338.95
2019-04-03T10:38:42.953Z,100339.11
2019-04-03T10:41:12.921Z,100344.72
2019-04-03T10:43:42.791Z,100338.53
2019-04-03T10:46:12.702Z,100339.42
2019-04-03T10:48:42.475Z,100337.22
2019-04-03T10:51:12.292Z,100342.91
2019-04-03T10:53:52.447Z,100338.24
2019-04-03T10:56:22.568Z,100340.59
2019-04-03T10:58:52.336Z,100336.52
2019-04-03T11:01:22.402Z,100347.76
2019-04-03T11:03:52.443Z,100347.61
2019-04-03T11:06:22.374Z,100350.33
2019-04-03T11:08:52.283Z,100339.23
2019-04-03T11:11:21.980Z,100341.44
2019-04-03T11:13:51.945Z,100336.26
2019-04-03T11:16:21.749Z,100327.36
2019-04-03T11:18:58.469Z,100328.73
2019-04-03T11:21:23.202Z,100326.75
2019-04-03T11:23:52.943Z,100326.71
2019-04-03T11:26:24.505Z,100325.61
2019-04-03T11:28:54.352Z,100318.22
2019-04-03T11:31:28.028Z,100310.80
2019-04-03T11:33:55.723Z,100314.80
2019-04-03T11:36:29.440Z,100320.96
2019-04-03T11:39:10.687Z,100319.14
2019-04-03T11:41:28.426Z,100314.93
2019-04-03T11:43:58.545Z,100323.70
2019-04-03T11:46:28.287Z,100328.49
2019-04-03T11:48:58.130Z,100327.66
2019-04-03T11:51:29.711Z,100322.23
2019-04-03T11:53:59.480Z,100319.63
2019-04-03T11:56:29.281Z,100318.29
2019-04-03T11:58:59.063Z,100316.31
2019-04-03T12:01:28.885Z,100325.67
2019-04-03T12:03:58.672Z,100319.75
2019-04-03T12:06:28.854Z,100326.55
2019-04-03T12:09:00.948Z,100322.97
2019-04-03T12:11:30.063Z,100318.54
2019-04-03T12:13:59.818Z,100313.09
2019-04-03T12:16:29.640Z,100307.40
2019-04-03T12:18:59.571Z,100302.86
2019-04-03T12:21:29.354Z,100299.64
2019-04-03T12:23:59.550Z,100296.44
2019-04-03T12:26:29.690Z,100293.09
2019-04-03T12:28:59.646Z,100296.19
2019-04-03T12:31:29.404Z,100288.67
2019-04-03T12:34:04.511Z,100285.47
2019-04-03T12:36:30.571Z,100276.94
2019-04-03T12:39:00.291Z,100276.95
2019-04-03T12:41:30.031Z,100267.92
2019-04-03T12:44:00.275Z,100264.70
2019-04-03T12:46:40.983Z,100262.00
2019-04-03T12:49:10.729Z,100260.40
2019-04-03T12:51:40.442Z,100264.97
2019-04-03T12:54:13.378Z,100267.55
2019-04-03T12:56:43.766Z,100265.94
2019-04-03T12:59:13.536Z,100266.82
2019-04-03T13:01:43.731Z,100252.36
2019-04-03T13:04:13.421Z,100246.58
2019-04-03T13:06:43.494Z,100239.05
2019-04-03T13:09:13.329Z,100243.73
2019-04-03T13:11:43.172Z,100245.94
2019-04-03T13:14:22.842Z,100248.28
2019-04-03T13:16:46.624Z,100243.11
2019-04-03T13:19:16.192Z,100245.22
2019-04-03T13:21:46.090Z,100246.83
2019-04-03T13:24:17.130Z,100252.64
2019-04-03T13:26:47.225Z,100246.59
2019-04-03T13:29:16.903Z,100246.58
2019-04-03T13:31:47.145Z,100250.65
2019-04-03T13:34:17.620Z,100245.36
2019-04-03T13:36:50.451Z,100253.02
2019-04-03T13:39:19.063Z,100262.00
2019-04-03T13:41:49.280Z,100254.37
2019-04-03T13:44:19.051Z,100258.57
2019-04-03T13:46:48.934Z,100261.52
2019-04-03T13:49:19.634Z,100259.30
2019-04-03T13:51:49.746Z,100255.47
2019-04-03T13:54:20.618Z,100246.22
2019-04-03T13:56:52.986Z,100239.80
2019-04-03T13:59:23.029Z,100226.60
2019-04-03T14:01:53.198Z,100230.16
2019-04-03T14:04:23.556Z,100229.67
2019-04-03T14:06:53.755Z,100223.13
2019-04-03T14:09:23.976Z,100218.95
2019-04-03T14:11:53.840Z,100212.05
2019-04-03T14:14:23.599Z,100209.69
2019-04-03T14:16:53.640Z,100200.70
2019-04-03T14:19:24.960Z,100219.56
2019-04-03T14:21:55.399Z,100212.27
2019-04-03T14:24:37.737Z,100206.48
2019-04-03T14:26:56.723Z,100203.89
2019-04-03T14:29:29.015Z,100206.82
2019-04-03T14:31:58.145Z,100203.50
2019-04-03T14:34:30.366Z,100199.91
2019-04-03T14:36:59.695Z,100200.25
2019-04-03T14:39:29.746Z,100184.50
2019-04-03T14:41:59.768Z,100189.39
2019-04-03T14:44:29.713Z,100184.36
2019-04-03T14:46:59.906Z,100178.16
2019-04-03T14:49:31.749Z,100182.89
2019-04-03T14:52:01.252Z,100173.78
2019-04-03T14:54:31.753Z,100177.12
2019-04-03T14:57:11.093Z,100177.96
2019-04-03T14:59:35.205Z,100170.19
2019-04-03T15:02:04.760Z,100176.83
2019-04-03T15:04:36.503Z,100165.27
2019-04-03T15:07:08.851Z,100164.13
2019-04-03T15:09:37.774Z,100161.42
2019-04-03T15:12:08.177Z,100156.00
2019-04-03T15:14:38.096Z,100158.45
2019-04-03T15:17:08.250Z,100153.61
2019-04-03T15:19:38.076Z,100149.13
2019-04-03T15:22:07.946Z,100154.34
2019-04-03T15:24:37.782Z,100140.03
2019-04-03T15:27:07.703Z,100146.93
2019-04-03T15:29:38.817Z,100145.06
2019-04-03T15:32:08.782Z,100145.09
2019-04-03T15:34:38.891Z,100150.60
2019-04-03T15:37:09.313Z,100152.37
2019-04-03T15:39:39.558Z,100157.09
2019-04-03T15:42:09.440Z,100151.04
2019-04-03T15:44:39.451Z,100154.12
2019-04-03T15:47:10.376Z,100145.09
2019-04-03T15:49:40.191Z,100147.92
2019-04-03T15:52:11.084Z,100141.42
2019-04-03T15:54:46.344Z,100137.61
2019-04-03T15:57:18.770Z,100141.17
2019-04-03T15:59:48.007Z,100145.27
2019-04-03T16:02:18.050Z,100142.30
2019-04-03T16:04:47.822Z,100134.64
2019-04-03T16:07:17.607Z,100131.67
2019-04-03T16:09:49.634Z,100132.03
2019-04-03T16:12:19.103Z,100130.56
2019-04-03T16:14:51.142Z,100126.09
2019-04-03T16:17:20.509Z,100128.91
2019-04-03T16:19:52.309Z,100123.12
2019-04-03T16:22:22.558Z,100120.77
2019-04-03T16:24:53.838Z,100116.36
2019-04-03T16:27:23.723Z,100109.06
2019-04-03T16:29:54.007Z,100114.13
2019-04-03T16:32:26.899Z,100111.41
2019-04-03T16:34:55.902Z,100108.18
2019-04-03T16:37:25.699Z,100107.70
2019-04-03T16:39:57.362Z,100101.80
2019-04-03T16:42:27.649Z,100103.16
2019-04-03T16:44:58.237Z,100101.65
2019-04-03T16:47:28.227Z,100101.44
2019-04-03T16:49:58.728Z,100093.40
2019-04-03T16:52:32.469Z,100092.19
2019-04-03T16:55:02.414Z,100093.66
2019-04-03T16:57:32.399Z,100093.80
2019-04-03T17:00:08.472Z,100091.97
2019-04-03T17:02:39.462Z,100086.35
2019-04-03T17:05:11.160Z,100091.78
2019-04-03T17:07:45.127Z,100092.30
2019-04-03T17:10:15.262Z,100094.13
2019-04-03T17:12:45.681Z,100097.66
2019-04-03T17:15:17.050Z,100099.23
2019-04-03T17:17:50.928Z,100088.52
2019-04-03T17:20:30.285Z,100090.02
2019-04-03T17:23:00.070Z,100090.64
2019-04-03T17:25:44.171Z,100093.72
2019-04-03T17:28:07.509Z,100091.63
2019-04-03T17:30:35.284Z,100090.16
2019-04-03T17:33:05.700Z,100087.34
2019-04-03T17:35:36.722Z,100090.90
2019-04-03T17:38:08.345Z,100082.08
2019-04-03T17:40:39.717Z,100090.07
2019-04-03T17:43:12.820Z,100077.84
2019-04-03T17:45:46.194Z,100072.70
2019-04-03T17:48:15.698Z,100073.59
2019-04-03T17:50:48.363Z,100081.22
2019-04-03T17:53:19.049Z,100082.81
2019-04-03T17:55:48.913Z,100091.55
2019-04-03T17:58:18.654Z,100095.24
2019-04-03T18:00:51.654Z,100101.41
2019-04-03T18:03:20.063Z,100102.65
2019-04-03T18:05:49.949Z,100107.34
2019-04-03T18:08:19.689Z,100109.30
2019-04-03T18:10:50.530Z,100116.19
2019-04-03T18:13:35.194Z,100119.53
2019-04-03T18:16:06.007Z,100113.34
2019-04-03T18:18:37.653Z,100129.95
2019-04-03T18:21:07.952Z,100121.10
2019-04-03T18:23:37.826Z,100121.19
2019-04-03T18:26:09.280Z,100116.02
2019-04-03T18:28:40.057Z,100107.52
2019-04-03T18:31:09.822Z,100111.20
2019-04-03T18:33:39.697Z,100106.00
2019-04-03T18:36:09.617Z,100104.65
2019-04-03T18:38:39.415Z,100115.52
2019-04-03T18:41:09.282Z,100111.08
2019-04-03T18:43:45.288Z,100107.64
2019-04-03T18:46:31.302Z,100117.11
2019-04-03T18:49:01.047Z,100119.38
2019-04-03T18:51:36.577Z,100112.72
2019-04-03T18:54:09.775Z,100108.38
2019-04-03T18:56:40.543Z,100106.14
2019-04-03T18:59:10.277Z,100107.92
2019-04-03T19:01:40.034Z,100111.52
2019-04-03T19:04:11.297Z,100104.61
2019-04-03T19:06:41.167Z,100098.63
2019-04-03T19:09:10.909Z,100103.66
2019-04-03T19:11:41.508Z,100100.19
2019-04-03T19:14:26.079Z,100095.19
2019-04-03T19:16:47.949Z,100099.16
2019-04-03T19:19:17.154Z,100098.96
2019-04-03T19:22:06.427Z,100096.05
2019-04-03T19:24:36.359Z,100097.81
2019-04-03T19:27:06.103Z,100095.27
2019-04-03T19:29:40.544Z,100091.75
2019-04-03T19:32:12.246Z,100088.00
2019-04-03T19:34:41.931Z,100094.75
2019-04-03T19:37:11.848Z,100092.41
2019-04-03T19:39:45.110Z,100100.12
2019-04-03T19:42:14.997Z,100096.13
2019-04-03T19:44:47.133Z,100099.37
2019-04-03T19:47:19.875Z,100087.43
2019-04-03T19:49:50.371Z,100093.75
2019-04-03T19:52:25.081Z,100100.03
2019-04-03T19:54:55.871Z,100094.68
2019-04-03T19:57:26.726Z,100090.69
2019-04-03T19:59:57.236Z,100084.78
2019-04-03T20:02:28.113Z,100081.70
2019-04-03T20:04:57.942Z,100071.55
2019-04-03T20:07:27.775Z,100074.06
2019-04-03T20:09:57.615Z,100073.98
2019-04-03T20:12:27.478Z,100073.28
2019-04-03T20:14:58.993Z,100076.20
2019-04-03T20:17:29.256Z,100073.96
2019-04-03T20:20:00.878Z,100057.35
2019-04-03T20:22:38.185Z,100062.96
2019-04-03T20:25:08.432Z,100061.49
2019-04-03T20:27:39.794Z,100057.91
2019-04-03T20:30:10.159Z,100058.00
2019-04-03T20:32:40.926Z,100053.28
2019-04-03T20:35:11.507Z,100047.55
2019-04-03T20:37:43.820Z,100033.05
2019-04-03T20:40:14.403Z,100015.12
2019-04-03T20:42:44.253Z,100015.23
2019-04-03T20:45:21.386Z,100034.48
2019-04-03T20:47:51.322Z,100031.66
2019-04-03T20:50:24.642Z,100034.02
2019-04-03T20:52:56.839Z,100030.23
2019-04-03T20:55:25.934Z,100020.62
2019-04-03T20:57:56.328Z,100027.69
2019-04-03T21:00:26.116Z,100038.30
2019-04-03T21:02:55.969Z,100047.91
2019-04-03T21:05:25.874Z,100043.70
2019-04-03T21:07:56.284Z,100029.92
2019-04-03T21:10:26.327Z,100015.27
2019-04-03T21:12:56.076Z,100010.16
2019-04-03T21:15:25.912Z,100013.73
2019-04-03T21:17:55.653Z,100006.35
2019-04-03T21:20:25.412Z,100006.81
2019-04-03T21:22:55.217Z,99998.52
2019-04-03T21:25:24.921Z,99992.28
2019-04-03T21:27:54.589Z,99982.69
2019-04-03T21:30:24.793Z,99980.19
2019-04-03T21:32:54.494Z,99975.82
2019-04-03T21:35:24.258Z,99981.92
2019-04-03T21:37:54.014Z,99989.45
2019-04-03T21:40:23.706Z,99999.27
2019-04-03T21:42:57.631Z,99998.50
2019-04-03T21:45:25.650Z,99988.69
2019-04-03T21:47:55.398Z,99985.87
2019-04-03T21:50:25.088Z,99986.37
2019-04-03T21:52:54.758Z,99990.09
2019-04-03T21:55:24.455Z,99989.25
2019-04-03T21:57:54.203Z,99993.28
2019-04-03T22:00:40.404Z,99992.53
2019-04-03T22:03:10.102Z,99993.11
2019-04-03T22:05:39.877Z,99995.28
2019-04-03T22:08:09.651Z,99988.33
2019-04-03T22:10:39.336Z,99988.21
2019-04-03T22:13:09.105Z,99986.45
2019-04-03T22:15:38.818Z,99972.38
2019-04-03T22:18:08.581Z,99960.81
2019-04-03T22:20:38.359Z,99961.50
2019-04-03T22:23:08.035Z,99967.70
2019-04-03T22:25:39.472Z,99967.66
2019-04-03T22:28:09.864Z,99970.44
2019-04-03T22:30:39.596Z,99969.97
2019-04-03T22:33:09.435Z,99964.45
2019-04-03T22:35:39.143Z,99965.72
2019-04-03T22:38:08.835Z,99947.38
2019-04-03T22:40:39.077Z,99936.31
2019-04-03T22:43:09.922Z,99927.12
2019-04-03T22:45:39.703Z,99920.00
2019-04-03T22:48:09.449Z,99929.20
2019-04-03T22:50:39.147Z,99937.49
2019-04-03T22:53:14.941Z,99931.88
2019-04-03T22:55:46.513Z,99915.52
2019-04-03T22:58:16.198Z,99905.76
2019-04-03T23:00:46.100Z,99898.51
2019-04-03T23:03:15.808Z,99901.14
2019-04-03T23:05:47.735Z,99894.99
2019-04-03T23:08:17.085Z,99904.46
2019-04-03T23:10:46.800Z,99894.84
2019-04-03T23:13:17.317Z,99893.05
2019-04-03T23:15:47.004Z,99886.16
2019-04-03T23:18:16.691Z,99878.63
2019-04-03T23:20:46.400Z,99864.76
2019-04-03T23:23:16.091Z,99862.68
2019-04-03T23:25:45.882Z,99859.13
2019-04-03T23:28:15.585Z,99855.68
2019-04-03T23:30:45.369Z,99850.68
2019-04-03T23:33:16.940Z,99843.56
2019-04-03T23:35:46.937Z,99825.29
2019-04-03T23:38:16.774Z,99819.53
2019-04-03T23:40:46.482Z,99818.09
2019-04-03T23:43:16.176Z,99814.91
2019-04-03T23:45:46.009Z,99802.95
2019-04-03T23:48:17.580Z,99795.82
2019-04-03T23:50:47.259Z,99797.18
2019-04-03T23:53:16.973Z,99785.91
2019-04-03T23:55:46.756Z,99766.95
2019-04-03T23:58:16.695Z,99770.16
